createdAt,value
2019-04-22T00:01:41.845Z,100991.00
2019-04-22T00:04:30.194Z,100989.00
2019-04-22T00:07:15.611Z,100993.00
2019-04-22T00:09:53.445Z,100993.00
2019-04-22T00:12:37.444Z,100987.00
2019-04-22T00:15:03.794Z,100986.00
2019-04-22T00:17:58.848Z,100986.00
2019-04-22T00:20:14.498Z,100989.00
2019-04-22T00:22:57.836Z,100987.00
2019-04-22T00:25:39.221Z,100991.00
2019-04-22T00:28:24.998Z,101000.00
2019-04-22T00:30:56.038Z,101001.00
2019-04-22T00:33:26.781Z,100992.00
2019-04-22T00:36:01.407Z,101002.00
2019-04-22T00:38:38.710Z,101002.00
2019-04-22T00:41:22.929Z,100996.00
2019-04-22T00:43:56.746Z,100994.00
2019-04-22T00:46:27.606Z,101000.00
2019-04-22T00:49:44.107Z,101011.00
2019-04-22T00:51:36.469Z,101010.00
2019-04-22T00:54:06.023Z,101008.00
2019-04-22T00:56:40.843Z,101011.00
2019-04-22T00:59:13.256Z,101035.00
2019-04-22T01:01:52.947Z,101009.00
2019-04-22T01:04:35.092Z,101015.00
2019-04-22T01:07:07.003Z,101011.00
2019-04-22T01:09:46.363Z,101005.00
2019-04-22T01:12:24.197Z,101008.00
2019-04-22T01:14:51.896Z,101010.00
2019-04-22T01:17:28.099Z,101012.00
2019-04-22T01:20:16.278Z,101006.00
2019-04-22T01:22:32.381Z,101011.00
2019-04-22T01:25:15.983Z,101012.00
2019-04-22T01:27:44.596Z,101010.00
2019-04-22T01:30:15.099Z,101016.00
2019-04-22T01:32:44.915Z,101025.00
2019-04-22T01:35:31.145Z,101027.00
2019-04-22T01:38:13.388Z,101021.00
2019-04-22T01:41:04.683Z,101018.00
2019-04-22T01:43:51.839Z,101024.00
2019-04-22T01:46:25.260Z,101014.00
2019-04-22T01:49:01.431Z,101008.00
2019-04-22T01:51:43.758Z,101013.00
2019-04-22T01:54:16.068Z,101012.00
2019-04-22T01:56:45.084Z,101003.00
2019-04-22T01:59:10.966Z,101010.00
2019-04-22T02:01:52.803Z,101016.00
2019-04-22T02:04:26.928Z,100998.00
2019-04-22T02:07:01.944Z,101013.00
2019-04-22T02:14:48.468Z,101005.00
2019-04-22T02:17:28.663Z,101012.00
2019-04-22T02:19:57.592Z,101009.00
2019-04-22T02:22:41.741Z,101003.00
2019-04-22T02:25:12.976Z,101016.00
2019-04-22T02:27:43.320Z,101006.00
2019-04-22T02:30:22.462Z,101004.00
2019-04-22T02:33:30.649Z,101004.00
2019-04-22T02:35:58.300Z,101008.00
2019-04-22T02:38:34.975Z,101005.00
2019-04-22T02:41:21.089Z,101002.00
2019-04-22T02:46:23.127Z,100996.00
2019-04-22T02:54:21.627Z,101005.00
2019-04-22T02:56:48.729Z,100997.00
2019-04-22T03:01:51.422Z,101004.00
2019-04-22T03:04:28.351Z,101000.00
2019-04-22T03:06:53.295Z,101000.00
2019-04-22T03:09:40.278Z,100998.00
2019-04-22T03:15:03.351Z,101001.00
2019-04-22T03:17:20.661Z,100998.00
2019-04-22T03:20:04.230Z,101000.00
2019-04-22T03:22:29.489Z,100994.00
2019-04-22T03:27:40.229Z,100997.00
2019-04-22T03:33:06.481Z,100999.00
2019-04-22T03:40:52.896Z,101009.00
2019-04-22T03:43:57.599Z,101008.00
2019-04-22T03:46:21.460Z,101014.00
2019-04-22T03:49:06.608Z,101007.00
2019-04-22T03:51:43.394Z,101009.00
2019-04-22T03:54:17.465Z,101014.00
2019-04-22T03:57:17.761Z,101015.00
2019-04-22T03:59:39.137Z,101013.00
2019-04-22T04:04:36.025Z,101032.00
2019-04-22T04:07:11.043Z,101030.00
2019-04-22T04:12:03.715Z,101036.00
2019-04-22T04:14:47.045Z,101041.00
2019-04-22T04:17:26.236Z,101044.00
2019-04-22T04:20:10.582Z,101050.00
2019-04-22T04:30:13.852Z,101052.00
2019-04-22T04:40:26.696Z,101064.00
2019-04-22T04:43:00.599Z,101064.00
2019-04-22T04:45:49.307Z,101068.00
2019-04-22T04:48:20.767Z,101070.00
2019-04-22T04:51:00.396Z,101068.00
2019-04-22T04:56:03.161Z,101075.00
2019-04-22T05:04:04.647Z,101084.00
2019-04-22T05:11:42.916Z,101099.00
2019-04-22T05:14:06.292Z,101093.00
2019-04-22T05:16:46.381Z,101103.00
2019-04-22T05:19:15.981Z,101106.00
2019-04-22T05:21:54.545Z,101103.00
2019-04-22T05:24:16.802Z,101100.00
2019-04-22T05:32:03.062Z,101120.00
2019-04-22T05:34:37.984Z,101115.00
2019-04-22T05:37:14.789Z,101122.00
2019-04-22T05:39:52.394Z,101117.00
2019-04-22T05:42:34.496Z,101155.00
2019-04-22T05:47:52.345Z,101121.00
2019-04-22T05:50:24.671Z,101133.00
2019-04-22T05:55:43.866Z,101137.00
2019-04-22T05:58:10.813Z,101148.00
2019-04-22T06:01:13.016Z,101144.00
2019-04-22T06:03:21.089Z,101140.00
2019-04-22T06:05:55.345Z,101144.00
2019-04-22T06:08:39.950Z,101157.00
2019-04-22T06:11:17.119Z,101156.00
2019-04-22T06:13:48.240Z,101142.00
2019-04-22T06:16:43.126Z,101145.00
2019-04-22T06:19:13.501Z,101143.00
2019-04-22T06:21:41.759Z,101148.00
2019-04-22T06:24:18.535Z,101153.00
2019-04-22T06:29:23.810Z,101166.00
2019-04-22T06:37:12.852Z,101183.00
2019-04-22T06:39:39.619Z,101178.00
2019-04-22T06:42:28.750Z,101177.00
2019-04-22T06:45:07.241Z,101177.00
2019-04-22T06:48:02.376Z,101175.00
2019-04-22T06:50:31.474Z,101174.00
2019-04-22T06:52:59.944Z,101172.00
2019-04-22T06:55:39.023Z,101171.00
2019-04-22T06:58:04.803Z,101168.00
2019-04-22T07:00:42.922Z,101198.00
2019-04-22T07:03:34.812Z,101198.00
2019-04-22T07:06:00.228Z,101178.00
2019-04-22T07:11:04.509Z,101174.00
2019-04-22T07:14:00.046Z,101177.00
2019-04-22T07:16:20.330Z,101179.00
2019-04-22T07:18:54.488Z,101177.00
2019-04-22T07:21:30.583Z,101180.00
2019-04-22T07:24:21.141Z,101180.00
2019-04-22T07:26:49.445Z,101185.00
2019-04-22T07:29:17.287Z,101188.00
2019-04-22T07:31:55.762Z,101185.00
2019-04-22T07:34:27.675Z,101181.00
2019-04-22T07:37:17.134Z,101180.00
2019-04-22T07:39:35.654Z,101183.00
2019-04-22T07:42:22.741Z,101190.00
2019-04-22T07:44:59.139Z,101187.00
2019-04-22T07:47:44.401Z,101196.00
2019-04-22T07:50:26.729Z,101188.00
2019-04-22T07:52:51.849Z,101183.00
2019-04-22T07:55:32.479Z,101188.00
2019-04-22T07:58:11.850Z,101186.00
2019-04-22T08:00:53.006Z,101201.00
2019-04-22T08:03:29.306Z,101195.00
2019-04-22T08:06:16.910Z,101197.00
2019-04-22T08:08:37.602Z,101197.00
2019-04-22T08:11:43.791Z,101203.00
2019-04-22T08:13:54.743Z,101200.00
2019-04-22T08:16:28.476Z,101203.00
2019-04-22T08:19:09.077Z,101200.00
2019-04-22T08:21:49.437Z,101212.00
2019-04-22T08:24:22.634Z,101212.00
2019-04-22T08:26:54.695Z,101219.00
2019-04-22T08:29:43.796Z,101212.00
2019-04-22T08:32:27.982Z,101207.00
2019-04-22T08:34:50.129Z,101212.00
2019-04-22T08:39:55.122Z,101210.00
2019-04-22T08:45:18.674Z,101210.00
2019-04-22T08:47:47.916Z,101208.00
2019-04-22T08:50:37.820Z,101223.00
2019-04-22T08:53:10.907Z,101213.00
2019-04-22T08:55:51.989Z,101221.00
2019-04-22T09:01:05.102Z,101216.00
2019-04-22T09:03:27.990Z,101217.00
2019-04-22T09:06:04.902Z,101216.00
2019-04-22T09:08:41.841Z,101216.00
2019-04-22T09:11:16.464Z,101223.00
2019-04-22T09:13:50.522Z,101224.00
2019-04-22T09:29:13.030Z,101234.00
2019-04-22T09:31:56.948Z,101236.00
2019-04-22T09:34:24.305Z,101227.00
2019-04-22T09:37:07.992Z,101231.00
2019-04-22T09:39:29.641Z,101238.00
2019-04-22T09:42:10.542Z,101241.00
2019-04-22T09:44:44.959Z,101235.00
2019-04-22T09:47:25.197Z,101232.00
2019-04-22T09:50:17.922Z,101239.00
2019-04-22T09:52:40.644Z,101239.00
2019-04-22T09:55:12.717Z,101231.00
2019-04-22T09:57:48.252Z,101230.00
2019-04-22T10:00:22.957Z,101225.00
2019-04-22T10:02:55.907Z,101225.00
2019-04-22T10:05:29.319Z,101223.00
2019-04-22T10:07:59.987Z,101225.00
2019-04-22T10:10:41.489Z,101237.00
2019-04-22T10:13:12.957Z,101231.00
2019-04-22T10:15:52.067Z,101175.00
2019-04-22T10:18:21.548Z,101235.00
2019-04-22T10:21:06.646Z,101229.00
2019-04-22T10:23:31.320Z,101226.00
2019-04-22T10:26:04.831Z,101231.00
2019-04-22T10:28:44.687Z,101232.00
2019-04-22T10:31:21.865Z,101222.00
2019-04-22T10:33:42.207Z,101238.00
2019-04-22T10:35:55.334Z,101235.00
2019-04-22T10:38:32.492Z,101232.00
2019-04-22T10:41:10.234Z,101233.00
2019-04-22T10:43:47.591Z,101240.00
2019-04-22T10:46:24.311Z,101235.00
2019-04-22T10:49:00.492Z,101224.00
2019-04-22T10:51:37.121Z,101233.00
2019-04-22T10:54:07.397Z,101216.00
2019-04-22T10:56:37.155Z,101215.00
2019-04-22T10:59:14.283Z,101110.00
2019-04-22T11:01:50.560Z,101214.00
2019-04-22T11:04:21.529Z,101212.00
2019-04-22T11:07:02.994Z,101199.00
2019-04-22T11:09:29.152Z,101211.00
2019-04-22T11:12:11.668Z,101204.00
2019-04-22T11:14:43.372Z,101204.00
2019-04-22T11:17:19.592Z,101209.00
2019-04-22T11:19:57.504Z,101204.00
2019-04-22T11:22:31.618Z,101195.00
2019-04-22T11:25:05.631Z,101202.00
2019-04-22T11:27:37.021Z,101190.00
2019-04-22T11:30:19.035Z,101195.00
2019-04-22T11:32:54.539Z,101198.00
2019-04-22T11:35:32.045Z,101194.00
2019-04-22T11:38:08.776Z,101192.00
2019-04-22T11:40:43.596Z,101198.00
2019-04-22T11:43:16.598Z,101196.00
2019-04-22T11:45:47.102Z,101205.00
2019-04-22T11:48:31.060Z,101203.00
2019-04-22T11:51:14.094Z,101198.00
2019-04-22T11:53:44.919Z,101194.00
2019-04-22T11:56:21.170Z,101191.00
2019-04-22T11:58:50.953Z,101195.00
2019-04-22T12:01:27.051Z,101205.00
2019-04-22T12:03:57.815Z,101193.00
2019-04-22T12:06:35.842Z,101195.00
2019-04-22T12:09:17.704Z,101193.00
2019-04-22T12:11:54.101Z,101195.00
2019-04-22T12:14:24.026Z,101199.00
2019-04-22T12:17:03.477Z,101192.00
2019-04-22T12:19:33.457Z,101198.00
2019-04-22T12:22:17.364Z,101189.00
2019-04-22T12:24:48.187Z,101180.00
2019-04-22T12:27:26.789Z,101187.00
2019-04-22T12:29:56.779Z,101187.00
2019-04-22T12:32:27.434Z,101188.00
2019-04-22T12:35:05.180Z,101187.00
2019-04-22T12:37:49.581Z,101193.00
2019-04-22T12:40:27.027Z,101183.00
2019-04-22T12:42:53.505Z,101188.00
2019-04-22T12:45:30.046Z,101179.00
2019-04-22T12:48:12.979Z,101174.00
2019-04-22T12:50:58.030Z,101176.00
2019-04-22T12:53:28.021Z,101174.00
2019-04-22T12:56:05.061Z,101175.00
2019-04-22T12:58:41.422Z,101175.00
2019-04-22T13:01:11.141Z,101175.00
2019-04-22T13:03:46.895Z,101170.00
2019-04-22T13:06:23.657Z,101180.00
2019-04-22T13:09:00.264Z,101173.00
2019-04-22T13:11:32.836Z,101171.00
2019-04-22T13:14:01.133Z,101161.00
2019-04-22T13:16:36.819Z,101165.00
2019-04-22T13:19:11.213Z,101164.00
2019-04-22T13:21:45.122Z,101168.00
2019-04-22T13:24:15.979Z,101161.00
2019-04-22T13:26:52.963Z,101172.00
2019-04-22T13:29:29.153Z,101163.00
2019-04-22T13:31:58.754Z,101167.00
2019-04-22T13:34:47.580Z,101174.00
2019-04-22T13:37:19.225Z,101165.00
2019-04-22T13:39:49.256Z,101169.00
2019-04-22T13:42:27.442Z,101176.00
2019-04-22T13:44:58.094Z,101171.00
2019-04-22T13:47:43.624Z,101176.00
2019-04-22T13:55:48.137Z,101174.00
2019-04-22T13:58:03.877Z,101173.00
2019-04-22T14:00:31.053Z,101179.00
2019-04-22T14:03:18.489Z,101187.00
2019-04-22T14:06:02.671Z,101177.00
2019-04-22T14:08:38.390Z,101184.00
2019-04-22T14:11:23.839Z,101173.00
2019-04-22T14:13:46.190Z,101183.00
2019-04-22T14:16:22.830Z,101183.00
2019-04-22T14:19:00.199Z,101181.00
2019-04-22T14:21:36.881Z,101183.00
2019-04-22T14:24:07.313Z,101181.00
2019-04-22T14:26:55.629Z,101188.00
2019-04-22T14:29:22.035Z,101171.00
2019-04-22T14:32:08.644Z,101183.00
2019-04-22T14:34:38.817Z,101169.00
2019-04-22T14:37:16.401Z,101174.00
2019-04-22T14:39:46.267Z,101167.00
2019-04-22T14:42:35.799Z,101170.00
2019-04-22T14:48:07.327Z,101171.00
2019-04-22T14:50:35.489Z,101173.00
2019-04-22T14:53:15.740Z,101168.00
2019-04-22T14:55:40.350Z,101174.00
2019-04-22T14:58:10.992Z,101164.00
2019-04-22T15:00:49.085Z,101162.00
2019-04-22T15:03:19.695Z,101159.00
2019-04-22T15:05:55.960Z,101161.00
2019-04-22T15:08:26.812Z,101165.00
2019-04-22T15:11:05.823Z,101164.00
2019-04-22T15:13:41.283Z,101163.00
2019-04-22T15:16:25.678Z,101164.00
2019-04-22T15:19:09.561Z,101164.00
2019-04-22T15:21:46.960Z,101164.00
2019-04-22T15:24:34.502Z,101169.00
2019-04-22T15:27:10.701Z,101166.00
2019-04-22T15:29:41.185Z,101164.00
2019-04-22T15:32:23.663Z,101164.00
2019-04-22T15:34:59.748Z,101166.00
2019-04-22T15:37:30.850Z,101161.00
2019-04-22T15:40:08.841Z,101160.00
2019-04-22T15:42:42.856Z,101159.00
2019-04-22T15:45:18.740Z,101164.00
2019-04-22T15:47:48.297Z,101157.00
2019-04-22T15:50:24.641Z,101160.00
2019-04-22T15:53:04.194Z,101159.00
2019-04-22T15:55:39.058Z,101164.00
2019-04-22T15:58:10.008Z,101163.00
2019-04-22T16:01:02.561Z,101156.00
2019-04-22T16:03:32.369Z,101159.00
2019-04-22T16:06:15.645Z,101164.00
2019-04-22T16:08:45.821Z,101165.00
2019-04-22T16:11:22.546Z,101162.00
2019-04-22T16:13:52.512Z,101163.00
2019-04-22T16:16:28.457Z,101164.00
2019-04-22T16:19:04.852Z,101162.00
2019-04-22T16:21:49.028Z,101161.00
2019-04-22T16:24:24.324Z,101162.00
2019-04-22T16:26:58.554Z,101166.00
2019-04-22T16:29:34.597Z,101170.00
2019-04-22T16:32:11.553Z,101164.00
2019-04-22T16:34:42.342Z,101155.00
2019-04-22T16:37:12.558Z,101163.00
2019-04-22T16:39:50.469Z,101164.00
2019-04-22T16:42:35.850Z,101160.00
2019-04-22T16:44:57.733Z,101163.00
2019-04-22T16:47:33.680Z,101164.00
2019-04-22T16:50:03.784Z,101165.00
2019-04-22T16:52:48.079Z,101168.00
2019-04-22T16:55:32.758Z,101162.00
2019-04-22T16:58:03.142Z,101159.00
2019-04-22T17:00:34.287Z,101165.00
2019-04-22T17:03:28.992Z,101166.00
2019-04-22T17:06:19.393Z,101163.00
2019-04-22T17:08:55.341Z,101163.00
2019-04-22T17:11:31.858Z,101030.00
2019-04-22T17:14:01.435Z,101167.00
2019-04-22T17:16:38.709Z,101166.00
2019-04-22T17:19:09.046Z,101167.00
2019-04-22T17:21:45.728Z,101162.00
2019-04-22T17:24:15.206Z,101169.00
2019-04-22T17:26:52.600Z,101174.00
2019-04-22T17:29:22.815Z,101170.00
2019-04-22T17:32:04.276Z,101179.00
2019-04-22T17:34:30.062Z,101181.00
2019-04-22T17:37:19.196Z,101221.00
2019-04-22T17:39:57.369Z,101175.00
2019-04-22T17:42:41.953Z,101173.00
2019-04-22T17:45:22.284Z,101178.00
2019-04-22T17:48:12.773Z,101186.00
2019-04-22T17:50:57.860Z,101190.00
2019-04-22T17:53:31.503Z,101185.00
2019-04-22T17:56:13.749Z,101188.00
2019-04-22T17:58:47.678Z,101187.00
2019-04-22T18:01:28.168Z,101189.00
2019-04-22T18:03:49.731Z,101201.00
2019-04-22T18:06:45.253Z,101199.00
2019-04-22T18:09:14.673Z,101200.00
2019-04-22T18:11:46.267Z,101203.00
2019-04-22T18:16:52.123Z,101238.00
2019-04-22T18:19:32.575Z,101220.00
2019-04-22T18:22:00.860Z,101232.00
2019-04-22T18:24:32.634Z,101219.00
2019-04-22T18:27:30.444Z,101221.00
2019-04-22T18:29:47.083Z,101221.00
2019-04-22T18:32:30.253Z,101224.00
2019-04-22T18:35:02.759Z,101225.00
2019-04-22T18:37:50.628Z,101227.00
2019-04-22T18:40:18.256Z,101225.00
2019-04-22T18:42:56.706Z,101229.00
2019-04-22T18:48:05.581Z,101227.00
2019-04-22T18:51:04.846Z,101228.00
2019-04-22T18:53:35.228Z,101231.00
2019-04-22T18:56:19.192Z,101233.00
2019-04-22T18:58:51.354Z,101233.00
2019-04-22T19:01:17.753Z,101244.00
2019-04-22T19:04:04.589Z,101237.00
2019-04-22T19:06:55.117Z,101241.00
2019-04-22T19:09:27.586Z,101248.00
2019-04-22T19:12:18.032Z,101244.00
2019-04-22T19:17:30.086Z,101246.00
2019-04-22T19:19:57.875Z,101197.00
2019-04-22T19:22:57.420Z,101253.00
2019-04-22T19:25:17.297Z,101253.00
2019-04-22T19:28:02.557Z,101252.00
2019-04-22T19:30:41.556Z,101245.00
2019-04-22T19:33:11.237Z,101249.00
2019-04-22T19:35:43.525Z,101251.00
2019-04-22T19:38:16.775Z,101259.00
2019-04-22T19:43:46.565Z,101252.00
2019-04-22T19:46:18.061Z,101259.00
2019-04-22T19:48:57.835Z,101256.00
2019-04-22T19:51:38.366Z,101273.00
2019-04-22T19:54:07.720Z,101261.00
2019-04-22T19:56:38.672Z,101258.00
2019-04-22T19:59:22.453Z,101261.00
2019-04-22T20:02:00.960Z,101267.00
2019-04-22T20:04:52.778Z,101267.00
2019-04-22T20:07:17.811Z,101263.00
2019-04-22T20:09:52.206Z,101271.00
2019-04-22T20:12:23.551Z,101265.00
2019-04-22T20:14:57.597Z,101268.00
2019-04-22T20:20:17.024Z,101176.00
2019-04-22T20:22:49.455Z,101271.00
2019-04-22T20:25:21.278Z,101273.00
2019-04-22T20:28:05.934Z,101272.00
2019-04-22T20:30:46.701Z,101280.00
2019-04-22T20:33:26.243Z,101275.00
2019-04-22T20:35:51.829Z,101280.00
2019-04-22T20:38:35.442Z,101279.00
2019-04-22T20:41:02.421Z,101276.00
2019-04-22T20:43:46.766Z,101275.00
2019-04-22T20:46:24.095Z,101273.00
2019-04-22T20:49:00.566Z,101281.00
2019-04-22T20:51:52.873Z,101282.00
2019-04-22T20:54:18.801Z,101280.00
2019-04-22T20:56:58.909Z,101279.00
2019-04-22T20:59:47.488Z,101280.00
2019-04-22T21:02:14.048Z,101274.00
2019-04-22T21:04:41.372Z,101272.00
2019-04-22T21:07:23.837Z,101277.00
2019-04-22T21:10:04.294Z,101274.00
2019-04-22T21:12:27.779Z,101318.00
2019-04-22T21:15:19.431Z,101285.00
2019-04-22T21:17:54.429Z,101273.00
2019-04-22T21:20:48.161Z,101278.00
2019-04-22T21:23:05.794Z,101281.00
2019-04-22T21:25:34.050Z,101287.00
2019-04-22T21:28:21.384Z,101284.00
2019-04-22T21:30:48.171Z,101281.00
2019-04-22T21:33:19.449Z,101281.00
2019-04-22T21:36:20.641Z,101284.00
2019-04-22T21:38:39.854Z,101286.00
2019-04-22T21:41:14.510Z,101279.00
2019-04-22T21:43:42.141Z,101290.00
2019-04-22T21:46:20.834Z,101282.00
2019-04-22T21:49:02.300Z,101289.00
2019-04-22T21:54:09.561Z,101285.00
2019-04-22T21:57:13.999Z,101286.00
2019-04-22T21:59:41.806Z,101284.00
2019-04-22T22:02:28.113Z,101285.00
2019-04-22T22:04:55.180Z,101289.00
2019-04-22T22:07:26.834Z,101290.00
2019-04-22T22:10:16.340Z,101290.00
2019-04-22T22:13:09.721Z,101292.00
2019-04-22T22:15:42.162Z,101290.00
2019-04-22T22:18:20.029Z,101284.00
2019-04-22T22:21:13.031Z,101287.00
2019-04-22T22:23:49.436Z,101286.00
2019-04-22T22:26:06.774Z,101282.00
2019-04-22T22:28:52.243Z,101292.00
2019-04-22T22:31:26.616Z,101284.00
2019-04-22T22:34:08.182Z,101285.00
2019-04-22T22:36:29.636Z,101282.00
2019-04-22T22:39:00.084Z,101280.00
2019-04-22T22:41:23.888Z,101279.00
2019-04-22T22:44:08.950Z,101269.00
2019-04-22T22:46:43.175Z,101273.00
2019-04-22T22:49:32.965Z,101275.00
2019-04-22T22:52:31.731Z,101277.00
2019-04-22T22:54:54.132Z,101271.00
2019-04-22T22:57:28.919Z,101278.00
2019-04-22T23:00:01.468Z,101274.00
2019-04-22T23:03:00.751Z,101273.00
2019-04-22T23:05:21.903Z,101274.00
2019-04-22T23:08:16.614Z,101271.00
2019-04-22T23:10:33.930Z,101274.00
2019-04-22T23:13:14.710Z,101263.00
2019-04-22T23:15:37.057Z,101263.00
2019-04-22T23:17:50.001Z,101264.00
2019-04-22T23:20:33.743Z,101259.00
2019-04-22T23:23:33.332Z,101264.00
2019-04-22T23:26:06.977Z,101261.00
2019-04-22T23:28:45.980Z,101261.00
2019-04-22T23:31:23.984Z,101256.00
2019-04-22T23:34:04.624Z,101254.00
2019-04-22T23:36:36.936Z,101257.00
2019-04-22T23:39:27.455Z,101257.00
2019-04-22T23:42:00.382Z,101258.00
2019-04-22T23:44:29.141Z,101255.00
2019-04-22T23:47:11.035Z,101256.00
2019-04-22T23:49:47.017Z,101248.00
2019-04-22T23:52:30.659Z,101252.00
2019-04-22T23:55:11.519Z,101255.00
2019-04-22T23:57:58.455Z,101246.00
